sensor_id;sensor_type;location;lat;lon;timestamp;P1;durP1;ratioP1;P2;durP2;ratioP2
64060;SDS011;60147;55.036;73.242;2023-04-25T00:02:13;2.97;;;1.50;;
64060;SDS011;60147;55.036;73.242;2023-04-25T00:04:39;2.88;;;1.80;;
64060;SDS011;60147;55.036;73.242;2023-04-25T00:07:16;6.18;;;1.95;;
64060;SDS011;60147;55.036;73.242;2023-04-25T00:09:42;5.15;;;1.83;;
64060;SDS011;60147;55.036;73.242;2023-04-25T00:15:04;6.15;;;2.40;;
64060;SDS011;60147;55.036;73.242;2023-04-25T00:17:48;3.67;;;1.98;;
64060;SDS011;60147;55.036;73.242;2023-04-25T00:20:14;6.05;;;1.80;;
64060;SDS011;60147;55.036;73.242;2023-04-25T00:22:45;4.28;;;1.77;;
64060;SDS011;60147;55.036;73.242;2023-04-25T00:25:11;4.57;;;2.03;;
64060;SDS011;60147;55.036;73.242;2023-04-25T00:27:37;4.75;;;1.60;;
64060;SDS011;60147;55.036;73.242;2023-04-25T00:30:04;8.05;;;2.55;;
64060;SDS011;60147;55.036;73.242;2023-04-25T00:32:49;5.10;;;1.80;;
64060;SDS011;60147;55.036;73.242;2023-04-25T00:35:16;3.88;;;1.80;;
64060;SDS011;60147;55.036;73.242;2023-04-25T00:37:41;3.50;;;1.80;;
64060;SDS011;60147;55.036;73.242;2023-04-25T00:40:08;3.85;;;1.88;;
64060;SDS011;60147;55.036;73.242;2023-04-25T00:42:34;5.85;;;2.13;;
64060;SDS011;60147;55.036;73.242;2023-04-25T00:45:12;4.72;;;1.80;;
64060;SDS011;60147;55.036;73.242;2023-04-25T00:47:39;8.27;;;2.10;;
64060;SDS011;60147;55.036;73.242;2023-04-25T00:50:06;3.85;;;2.05;;
64060;SDS011;60147;55.036;73.242;2023-04-25T00:52:43;8.85;;;2.17;;
64060;SDS011;60147;55.036;73.242;2023-04-25T00:55:10;5.97;;;2.10;;
64060;SDS011;60147;55.036;73.242;2023-04-25T00:57:55;4.45;;;1.67;;
64060;SDS011;60147;55.036;73.242;2023-04-25T01:00:21;10.63;;;2.08;;
64060;SDS011;60147;55.036;73.242;2023-04-25T01:05:50;5.82;;;1.95;;
64060;SDS011;60147;55.036;73.242;2023-04-25T01:08:26;6.78;;;2.20;;
64060;SDS011;60147;55.036;73.242;2023-04-25T01:10:52;6.15;;;1.83;;
64060;SDS011;60147;55.036;73.242;2023-04-25T01:13:36;9.48;;;2.13;;
64060;SDS011;60147;55.036;73.242;2023-04-25T01:16:03;11.73;;;2.10;;
64060;SDS011;60147;55.036;73.242;2023-04-25T01:18:29;6.75;;;1.88;;
64060;SDS011;60147;55.036;73.242;2023-04-25T01:21:06;9.75;;;2.13;;
64060;SDS011;60147;55.036;73.242;2023-04-25T01:23:38;6.50;;;2.00;;
64060;SDS011;60147;55.036;73.242;2023-04-25T01:26:04;6.88;;;2.17;;
64060;SDS011;60147;55.036;73.242;2023-04-25T01:28:31;6.55;;;2.60;;
64060;SDS011;60147;55.036;73.242;2023-04-25T01:30:58;4.38;;;1.80;;
64060;SDS011;60147;55.036;73.242;2023-04-25T01:33:25;7.13;;;2.03;;
64060;SDS011;60147;55.036;73.242;2023-04-25T01:35:51;10.98;;;2.10;;
64060;SDS011;60147;55.036;73.242;2023-04-25T01:38:19;7.90;;;2.30;;
64060;SDS011;60147;55.036;73.242;2023-04-25T01:40:45;12.40;;;2.72;;
64060;SDS011;60147;55.036;73.242;2023-04-25T01:43:11;5.03;;;1.98;;
64060;SDS011;60147;55.036;73.242;2023-04-25T01:48:23;6.25;;;2.20;;
64060;SDS011;60147;55.036;73.242;2023-04-25T01:53:33;7.97;;;2.35;;
64060;SDS011;60147;55.036;73.242;2023-04-25T01:56:01;8.73;;;2.45;;
64060;SDS011;60147;55.036;73.242;2023-04-25T01:58:45;10.50;;;2.38;;
64060;SDS011;60147;55.036;73.242;2023-04-25T02:01:34;9.35;;;2.47;;
64060;SDS011;60147;55.036;73.242;2023-04-25T02:04:14;11.00;;;2.42;;
64060;SDS011;60147;55.036;73.242;2023-04-25T02:06:41;8.68;;;2.85;;
64060;SDS011;60147;55.036;73.242;2023-04-25T02:09:07;9.25;;;2.67;;
64060;SDS011;60147;55.036;73.242;2023-04-25T02:11:38;8.40;;;2.97;;
64060;SDS011;60147;55.036;73.242;2023-04-25T02:14:43;7.28;;;2.83;;
64060;SDS011;60147;55.036;73.242;2023-04-25T02:17:25;7.70;;;2.45;;
64060;SDS011;60147;55.036;73.242;2023-04-25T02:19:51;5.45;;;2.47;;
64060;SDS011;60147;55.036;73.242;2023-04-25T02:22:23;6.93;;;1.95;;
64060;SDS011;60147;55.036;73.242;2023-04-25T02:24:49;9.18;;;2.42;;
64060;SDS011;60147;55.036;73.242;2023-04-25T02:27:33;5.65;;;1.88;;
64060;SDS011;60147;55.036;73.242;2023-04-25T02:30:08;6.35;;;2.58;;
64060;SDS011;60147;55.036;73.242;2023-04-25T02:32:34;9.02;;;1.90;;
64060;SDS011;60147;55.036;73.242;2023-04-25T02:35:01;5.22;;;1.98;;
64060;SDS011;60147;55.036;73.242;2023-04-25T02:37:36;10.15;;;2.22;;
64060;SDS011;60147;55.036;73.242;2023-04-25T02:40:02;6.43;;;1.75;;
64060;SDS011;60147;55.036;73.242;2023-04-25T02:44:59;9.18;;;3.45;;
64060;SDS011;60147;55.036;73.242;2023-04-25T02:47:43;7.93;;;2.17;;
64060;SDS011;60147;55.036;73.242;2023-04-25T02:55:49;8.07;;;2.10;;
64060;SDS011;60147;55.036;73.242;2023-04-25T02:58:15;8.35;;;3.38;;
64060;SDS011;60147;55.036;73.242;2023-04-25T03:01:02;9.98;;;2.45;;
64060;SDS011;60147;55.036;73.242;2023-04-25T03:06:17;9.38;;;2.75;;
64060;SDS011;60147;55.036;73.242;2023-04-25T03:08:43;4.55;;;2.03;;
64060;SDS011;60147;55.036;73.242;2023-04-25T03:14:12;5.38;;;2.10;;
64060;SDS011;60147;55.036;73.242;2023-04-25T03:16:48;8.05;;;2.10;;
64060;SDS011;60147;55.036;73.242;2023-04-25T03:22:01;4.93;;;2.05;;
64060;SDS011;60147;55.036;73.242;2023-04-25T03:24:27;5.43;;;1.67;;
64060;SDS011;60147;55.036;73.242;2023-04-25T03:26:53;7.88;;;2.22;;
64060;SDS011;60147;55.036;73.242;2023-04-25T03:29:56;7.05;;;2.53;;
64060;SDS011;60147;55.036;73.242;2023-04-25T03:32:23;6.68;;;2.45;;
64060;SDS011;60147;55.036;73.242;2023-04-25T03:34:49;10.55;;;2.60;;
64060;SDS011;60147;55.036;73.242;2023-04-25T03:37:15;6.78;;;2.50;;
64060;SDS011;60147;55.036;73.242;2023-04-25T03:39:41;6.15;;;1.90;;
64060;SDS011;60147;55.036;73.242;2023-04-25T03:42:07;6.07;;;2.20;;
64060;SDS011;60147;55.036;73.242;2023-04-25T03:47:24;12.63;;;2.67;;
64060;SDS011;60147;55.036;73.242;2023-04-25T03:49:51;12.32;;;2.35;;
64060;SDS011;60147;55.036;73.242;2023-04-25T03:52:20;8.48;;;2.63;;
64060;SDS011;60147;55.036;73.242;2023-04-25T03:55:15;5.53;;;1.85;;
64060;SDS011;60147;55.036;73.242;2023-04-25T04:00:26;6.47;;;2.30;;
64060;SDS011;60147;55.036;73.242;2023-04-25T04:03:10;7.45;;;1.88;;
64060;SDS011;60147;55.036;73.242;2023-04-25T04:05:37;9.88;;;2.03;;
64060;SDS011;60147;55.036;73.242;2023-04-25T04:08:06;5.68;;;2.28;;
64060;SDS011;60147;55.036;73.242;2023-04-25T04:10:51;7.60;;;2.13;;
64060;SDS011;60147;55.036;73.242;2023-04-25T04:13:17;6.50;;;2.20;;
64060;SDS011;60147;55.036;73.242;2023-04-25T04:15:44;6.38;;;2.05;;
64060;SDS011;60147;55.036;73.242;2023-04-25T04:18:09;16.13;;;2.97;;
64060;SDS011;60147;55.036;73.242;2023-04-25T04:20:59;5.60;;;2.20;;
64060;SDS011;60147;55.036;73.242;2023-04-25T04:23:28;7.95;;;2.00;;
64060;SDS011;60147;55.036;73.242;2023-04-25T04:26:06;7.30;;;2.10;;
64060;SDS011;60147;55.036;73.242;2023-04-25T04:28:50;10.90;;;2.25;;
64060;SDS011;60147;55.036;73.242;2023-04-25T04:31:29;4.72;;;2.15;;
64060;SDS011;60147;55.036;73.242;2023-04-25T04:34:00;8.43;;;2.22;;
64060;SDS011;60147;55.036;73.242;2023-04-25T04:36:38;4.13;;;1.88;;
64060;SDS011;60147;55.036;73.242;2023-04-25T04:39:23;7.13;;;2.13;;
64060;SDS011;60147;55.036;73.242;2023-04-25T04:42:20;5.43;;;1.90;;
64060;SDS011;60147;55.036;73.242;2023-04-25T04:44:54;8.45;;;1.70;;
64060;SDS011;60147;55.036;73.242;2023-04-25T04:47:39;7.40;;;1.88;;
64060;SDS011;60147;55.036;73.242;2023-04-25T04:50:35;16.92;;;3.30;;
64060;SDS011;60147;55.036;73.242;2023-04-25T04:53:11;6.03;;;2.20;;
64060;SDS011;60147;55.036;73.242;2023-04-25T04:59:07;4.50;;;2.22;;
64060;SDS011;60147;55.036;73.242;2023-04-25T05:02:12;9.65;;;2.30;;
64060;SDS011;60147;55.036;73.242;2023-04-25T05:04:48;9.23;;;2.38;;
64060;SDS011;60147;55.036;73.242;2023-04-25T05:07:32;10.25;;;2.42;;
64060;SDS011;60147;55.036;73.242;2023-04-25T05:10:25;10.07;;;2.00;;
64060;SDS011;60147;55.036;73.242;2023-04-25T05:13:00;8.90;;;1.90;;
64060;SDS011;60147;55.036;73.242;2023-04-25T05:15:38;12.68;;;2.05;;
64060;SDS011;60147;55.036;73.242;2023-04-25T05:18:33;9.02;;;2.08;;
64060;SDS011;60147;55.036;73.242;2023-04-25T05:21:37;3.42;;;1.58;;
64060;SDS011;60147;55.036;73.242;2023-04-25T05:24:51;9.77;;;1.90;;
64060;SDS011;60147;55.036;73.242;2023-04-25T05:27:35;7.97;;;2.10;;
64060;SDS011;60147;55.036;73.242;2023-04-25T05:30:20;6.45;;;1.80;;
64060;SDS011;60147;55.036;73.242;2023-04-25T05:33:04;5.45;;;1.90;;
64060;SDS011;60147;55.036;73.242;2023-04-25T05:35:33;7.82;;;2.30;;
64060;SDS011;60147;55.036;73.242;2023-04-25T05:38:00;5.95;;;1.92;;
64060;SDS011;60147;55.036;73.242;2023-04-25T05:40:45;10.45;;;1.92;;
64060;SDS011;60147;55.036;73.242;2023-04-25T05:43:50;4.00;;;1.70;;
64060;SDS011;60147;55.036;73.242;2023-04-25T05:46:38;7.13;;;1.50;;
64060;SDS011;60147;55.036;73.242;2023-04-25T05:49:17;13.43;;;2.80;;
64060;SDS011;60147;55.036;73.242;2023-04-25T05:54:53;10.93;;;2.08;;
64060;SDS011;60147;55.036;73.242;2023-04-25T05:57:26;7.10;;;1.75;;
64060;SDS011;60147;55.036;73.242;2023-04-25T06:00:03;5.43;;;1.50;;
64060;SDS011;60147;55.036;73.242;2023-04-25T06:02:45;3.03;;;1.50;;
64060;SDS011;60147;55.036;73.242;2023-04-25T06:05:24;3.30;;;1.50;;
64060;SDS011;60147;55.036;73.242;2023-04-25T06:08:09;3.80;;;1.40;;
64060;SDS011;60147;55.036;73.242;2023-04-25T06:10:36;12.98;;;2.58;;
64060;SDS011;60147;55.036;73.242;2023-04-25T06:13:03;6.50;;;1.90;;
64060;SDS011;60147;55.036;73.242;2023-04-25T06:15:30;5.85;;;1.80;;
64060;SDS011;60147;55.036;73.242;2023-04-25T06:17:59;5.90;;;2.05;;
64060;SDS011;60147;55.036;73.242;2023-04-25T06:20:25;8.32;;;2.42;;
64060;SDS011;60147;55.036;73.242;2023-04-25T06:22:53;7.75;;;1.70;;
64060;SDS011;60147;55.036;73.242;2023-04-25T06:25:53;6.53;;;1.92;;
64060;SDS011;60147;55.036;73.242;2023-04-25T06:28:19;7.90;;;1.88;;
64060;SDS011;60147;55.036;73.242;2023-04-25T06:30:54;6.03;;;1.70;;
64060;SDS011;60147;55.036;73.242;2023-04-25T06:33:21;4.15;;;1.75;;
64060;SDS011;60147;55.036;73.242;2023-04-25T06:35:48;5.38;;;1.85;;
64060;SDS011;60147;55.036;73.242;2023-04-25T06:38:30;4.50;;;1.63;;
64060;SDS011;60147;55.036;73.242;2023-04-25T06:43:51;6.57;;;2.10;;
64060;SDS011;60147;55.036;73.242;2023-04-25T06:46:27;3.25;;;1.70;;
64060;SDS011;60147;55.036;73.242;2023-04-25T06:48:56;4.07;;;1.80;;
64060;SDS011;60147;55.036;73.242;2023-04-25T06:51:22;11.43;;;1.98;;
64060;SDS011;60147;55.036;73.242;2023-04-25T06:53:50;9.82;;;1.92;;
64060;SDS011;60147;55.036;73.242;2023-04-25T06:56:25;12.25;;;1.90;;
64060;SDS011;60147;55.036;73.242;2023-04-25T06:59:04;4.53;;;1.75;;
64060;SDS011;60147;55.036;73.242;2023-04-25T07:01:33;5.88;;;1.70;;
64060;SDS011;60147;55.036;73.242;2023-04-25T07:04:02;5.40;;;1.80;;
64060;SDS011;60147;55.036;73.242;2023-04-25T07:06:30;8.60;;;2.60;;
64060;SDS011;60147;55.036;73.242;2023-04-25T07:08:56;12.55;;;2.15;;
64060;SDS011;60147;55.036;73.242;2023-04-25T07:11:23;8.07;;;2.78;;
64060;SDS011;60147;55.036;73.242;2023-04-25T07:13:49;5.50;;;1.60;;
64060;SDS011;60147;55.036;73.242;2023-04-25T07:16:20;11.40;;;2.90;;
64060;SDS011;60147;55.036;73.242;2023-04-25T07:18:46;10.43;;;2.38;;
64060;SDS011;60147;55.036;73.242;2023-04-25T07:21:16;4.97;;;1.92;;
64060;SDS011;60147;55.036;73.242;2023-04-25T07:23:43;18.48;;;2.13;;
64060;SDS011;60147;55.036;73.242;2023-04-25T07:26:14;7.38;;;1.63;;
64060;SDS011;60147;55.036;73.242;2023-04-25T07:28:58;14.15;;;2.42;;
64060;SDS011;60147;55.036;73.242;2023-04-25T07:31:29;9.05;;;1.95;;
64060;SDS011;60147;55.036;73.242;2023-04-25T07:34:02;7.10;;;2.13;;
64060;SDS011;60147;55.036;73.242;2023-04-25T07:36:46;14.68;;;2.30;;
64060;SDS011;60147;55.036;73.242;2023-04-25T07:39:35;8.25;;;1.85;;
64060;SDS011;60147;55.036;73.242;2023-04-25T07:42:03;6.22;;;2.08;;
64060;SDS011;60147;55.036;73.242;2023-04-25T07:44:39;11.30;;;1.70;;
64060;SDS011;60147;55.036;73.242;2023-04-25T07:47:08;8.70;;;2.08;;
64060;SDS011;60147;55.036;73.242;2023-04-25T07:49:34;20.17;;;3.17;;
64060;SDS011;60147;55.036;73.242;2023-04-25T07:52:19;11.30;;;2.78;;
64060;SDS011;60147;55.036;73.242;2023-04-25T07:57:50;10.63;;;2.20;;
64060;SDS011;60147;55.036;73.242;2023-04-25T08:00:37;5.75;;;2.22;;
64060;SDS011;60147;55.036;73.242;2023-04-25T08:03:30;5.82;;;2.25;;
64060;SDS011;60147;55.036;73.242;2023-04-25T08:09:01;39.35;;;3.05;;
64060;SDS011;60147;55.036;73.242;2023-04-25T08:11:34;5.50;;;1.58;;
64060;SDS011;60147;55.036;73.242;2023-04-25T08:14:00;11.60;;;2.38;;
64060;SDS011;60147;55.036;73.242;2023-04-25T08:16:26;6.80;;;2.20;;
64060;SDS011;60147;55.036;73.242;2023-04-25T08:19:10;5.22;;;1.98;;
64060;SDS011;60147;55.036;73.242;2023-04-25T08:21:55;6.65;;;1.77;;
64060;SDS011;60147;55.036;73.242;2023-04-25T08:24:41;16.27;;;2.70;;
64060;SDS011;60147;55.036;73.242;2023-04-25T08:27:25;7.13;;;1.98;;
64060;SDS011;60147;55.036;73.242;2023-04-25T08:30:10;10.90;;;3.10;;
64060;SDS011;60147;55.036;73.242;2023-04-25T08:32:37;7.43;;;2.00;;
64060;SDS011;60147;55.036;73.242;2023-04-25T08:35:27;9.80;;;2.42;;
64060;SDS011;60147;55.036;73.242;2023-04-25T08:40:39;6.57;;;1.90;;
64060;SDS011;60147;55.036;73.242;2023-04-25T08:43:11;9.85;;;1.88;;
64060;SDS011;60147;55.036;73.242;2023-04-25T08:45:39;8.38;;;1.73;;
64060;SDS011;60147;55.036;73.242;2023-04-25T08:50:57;10.43;;;1.88;;
64060;SDS011;60147;55.036;73.242;2023-04-25T08:53:28;8.85;;;1.90;;
64060;SDS011;60147;55.036;73.242;2023-04-25T09:02:06;7.97;;;2.13;;
64060;SDS011;60147;55.036;73.242;2023-04-25T09:04:34;10.38;;;2.38;;
64060;SDS011;60147;55.036;73.242;2023-04-25T09:07:01;9.95;;;2.60;;
64060;SDS011;60147;55.036;73.242;2023-04-25T09:09:29;7.72;;;2.20;;
64060;SDS011;60147;55.036;73.242;2023-04-25T09:11:54;8.02;;;2.50;;
64060;SDS011;60147;55.036;73.242;2023-04-25T09:14:22;11.43;;;3.20;;
64060;SDS011;60147;55.036;73.242;2023-04-25T09:19:41;7.57;;;3.90;;
64060;SDS011;60147;55.036;73.242;2023-04-25T09:22:27;6.57;;;3.10;;
64060;SDS011;60147;55.036;73.242;2023-04-25T09:24:54;10.27;;;2.83;;
64060;SDS011;60147;55.036;73.242;2023-04-25T09:27:24;6.03;;;2.23;;
64060;SDS011;60147;55.036;73.242;2023-04-25T09:30:13;14.00;;;3.13;;
64060;SDS011;60147;55.036;73.242;2023-04-25T09:33:04;5.32;;;2.30;;
64060;SDS011;60147;55.036;73.242;2023-04-25T09:35:34;10.98;;;2.35;;
64060;SDS011;60147;55.036;73.242;2023-04-25T09:38:01;11.18;;;2.80;;
64060;SDS011;60147;55.036;73.242;2023-04-25T09:40:46;6.88;;;2.10;;
64060;SDS011;60147;55.036;73.242;2023-04-25T09:43:23;6.38;;;2.40;;
64060;SDS011;60147;55.036;73.242;2023-04-25T09:45:51;6.07;;;1.88;;
64060;SDS011;60147;55.036;73.242;2023-04-25T09:48:37;6.55;;;2.20;;
64060;SDS011;60147;55.036;73.242;2023-04-25T09:51:10;10.02;;;2.40;;
64060;SDS011;60147;55.036;73.242;2023-04-25T09:53:54;5.78;;;2.85;;
64060;SDS011;60147;55.036;73.242;2023-04-25T09:56:31;7.07;;;3.08;;
64060;SDS011;60147;55.036;73.242;2023-04-25T09:59:01;7.82;;;2.28;;
64060;SDS011;60147;55.036;73.242;2023-04-25T10:01:33;10.82;;;3.20;;
64060;SDS011;60147;55.036;73.242;2023-04-25T10:04:22;13.75;;;3.22;;
64060;SDS011;60147;55.036;73.242;2023-04-25T10:06:58;5.55;;;2.05;;
64060;SDS011;60147;55.036;73.242;2023-04-25T10:09:25;9.02;;;2.10;;
64060;SDS011;60147;55.036;73.242;2023-04-25T10:14:54;5.88;;;2.35;;
64060;SDS011;60147;55.036;73.242;2023-04-25T10:17:20;6.22;;;1.98;;
64060;SDS011;60147;55.036;73.242;2023-04-25T10:19:49;12.57;;;2.25;;
64060;SDS011;60147;55.036;73.242;2023-04-25T10:25:01;8.70;;;1.92;;
64060;SDS011;60147;55.036;73.242;2023-04-25T10:27:30;6.72;;;1.88;;
64060;SDS011;60147;55.036;73.242;2023-04-25T10:32:54;8.45;;;2.85;;
64060;SDS011;60147;55.036;73.242;2023-04-25T10:35:24;5.45;;;2.40;;
64060;SDS011;60147;55.036;73.242;2023-04-25T10:38:09;8.13;;;2.13;;
64060;SDS011;60147;55.036;73.242;2023-04-25T10:40:36;5.75;;;2.30;;
64060;SDS011;60147;55.036;73.242;2023-04-25T10:43:34;9.60;;;2.20;;
64060;SDS011;60147;55.036;73.242;2023-04-25T10:46:01;4.88;;;2.47;;
64060;SDS011;60147;55.036;73.242;2023-04-25T10:48:49;7.70;;;2.00;;
64060;SDS011;60147;55.036;73.242;2023-04-25T10:51:19;5.45;;;1.70;;
64060;SDS011;60147;55.036;73.242;2023-04-25T11:01:54;3.45;;;1.80;;
64060;SDS011;60147;55.036;73.242;2023-04-25T11:10:29;5.93;;;1.70;;
64060;SDS011;60147;55.036;73.242;2023-04-25T11:15:45;7.97;;;2.03;;
64060;SDS011;60147;55.036;73.242;2023-04-25T11:18:15;13.93;;;2.92;;
64060;SDS011;60147;55.036;73.242;2023-04-25T11:20:41;6.93;;;2.22;;
64060;SDS011;60147;55.036;73.242;2023-04-25T11:23:13;7.43;;;1.80;;
64060;SDS011;60147;55.036;73.242;2023-04-25T11:25:39;6.50;;;1.90;;
64060;SDS011;60147;55.036;73.242;2023-04-25T11:28:05;7.38;;;2.50;;
64060;SDS011;60147;55.036;73.242;2023-04-25T11:30:31;3.38;;;2.00;;
64060;SDS011;60147;55.036;73.242;2023-04-25T11:32:56;7.25;;;2.65;;
64060;SDS011;60147;55.036;73.242;2023-04-25T11:35:22;11.90;;;3.03;;
64060;SDS011;60147;55.036;73.242;2023-04-25T11:37:55;9.05;;;3.53;;
64060;SDS011;60147;55.036;73.242;2023-04-25T11:40:25;13.18;;;3.03;;
64060;SDS011;60147;55.036;73.242;2023-04-25T11:42:51;6.72;;;2.60;;
64060;SDS011;60147;55.036;73.242;2023-04-25T11:45:36;7.53;;;2.20;;
64060;SDS011;60147;55.036;73.242;2023-04-25T11:48:02;8.82;;;2.60;;
64060;SDS011;60147;55.036;73.242;2023-04-25T11:53:32;16.98;;;4.22;;
64060;SDS011;60147;55.036;73.242;2023-04-25T11:56:27;6.13;;;2.83;;
64060;SDS011;60147;55.036;73.242;2023-04-25T12:01:49;11.70;;;3.13;;
64060;SDS011;60147;55.036;73.242;2023-04-25T12:04:16;12.38;;;2.75;;
64060;SDS011;60147;55.036;73.242;2023-04-25T12:07:01;17.33;;;10.25;;
64060;SDS011;60147;55.036;73.242;2023-04-25T12:09:37;18.30;;;3.50;;
64060;SDS011;60147;55.036;73.242;2023-04-25T12:12:05;13.15;;;3.92;;
64060;SDS011;60147;55.036;73.242;2023-04-25T12:14:35;14.43;;;3.90;;
64060;SDS011;60147;55.036;73.242;2023-04-25T12:17:04;13.65;;;3.00;;
64060;SDS011;60147;55.036;73.242;2023-04-25T12:19:33;9.35;;;1.95;;
64060;SDS011;60147;55.036;73.242;2023-04-25T12:27:41;14.13;;;4.30;;
64060;SDS011;60147;55.036;73.242;2023-04-25T12:30:07;7.78;;;3.00;;
64060;SDS011;60147;55.036;73.242;2023-04-25T12:32:56;12.63;;;3.35;;
64060;SDS011;60147;55.036;73.242;2023-04-25T12:35:47;10.32;;;2.78;;
64060;SDS011;60147;55.036;73.242;2023-04-25T12:38:23;11.32;;;2.88;;
64060;SDS011;60147;55.036;73.242;2023-04-25T12:40:54;12.00;;;4.38;;
64060;SDS011;60147;55.036;73.242;2023-04-25T12:43:20;14.10;;;3.60;;
64060;SDS011;60147;55.036;73.242;2023-04-25T12:45:47;9.25;;;2.15;;
64060;SDS011;60147;55.036;73.242;2023-04-25T12:48:14;4.68;;;2.03;;
64060;SDS011;60147;55.036;73.242;2023-04-25T12:50:46;4.93;;;1.70;;
64060;SDS011;60147;55.036;73.242;2023-04-25T12:53:24;10.88;;;2.65;;
64060;SDS011;60147;55.036;73.242;2023-04-25T12:55:59;8.65;;;3.70;;
64060;SDS011;60147;55.036;73.242;2023-04-25T12:58:25;15.60;;;5.22;;
64060;SDS011;60147;55.036;73.242;2023-04-25T13:00:57;10.82;;;5.15;;
64060;SDS011;60147;55.036;73.242;2023-04-25T13:03:23;15.15;;;3.85;;
64060;SDS011;60147;55.036;73.242;2023-04-25T13:05:49;9.82;;;3.08;;
64060;SDS011;60147;55.036;73.242;2023-04-25T13:11:04;14.68;;;4.70;;
64060;SDS011;60147;55.036;73.242;2023-04-25T13:13:30;5.75;;;2.22;;
64060;SDS011;60147;55.036;73.242;2023-04-25T13:16:33;12.57;;;2.08;;
64060;SDS011;60147;55.036;73.242;2023-04-25T13:18:59;9.80;;;1.98;;
64060;SDS011;60147;55.036;73.242;2023-04-25T13:21:25;7.25;;;1.90;;
64060;SDS011;60147;55.036;73.242;2023-04-25T13:26:35;10.60;;;2.22;;
64060;SDS011;60147;55.036;73.242;2023-04-25T13:29:01;8.90;;;2.30;;
64060;SDS011;60147;55.036;73.242;2023-04-25T13:34:13;10.38;;;2.85;;
64060;SDS011;60147;55.036;73.242;2023-04-25T13:36:39;14.00;;;2.35;;
64060;SDS011;60147;55.036;73.242;2023-04-25T13:39:23;10.68;;;2.33;;
64060;SDS011;60147;55.036;73.242;2023-04-25T13:41:49;21.70;;;3.28;;
64060;SDS011;60147;55.036;73.242;2023-04-25T13:44:15;11.90;;;3.58;;
64060;SDS011;60147;55.036;73.242;2023-04-25T13:46:42;16.50;;;3.08;;
64060;SDS011;60147;55.036;73.242;2023-04-25T13:49:07;17.05;;;3.28;;
64060;SDS011;60147;55.036;73.242;2023-04-25T13:51:34;16.20;;;3.55;;
64060;SDS011;60147;55.036;73.242;2023-04-25T13:54:18;13.52;;;3.20;;
64060;SDS011;60147;55.036;73.242;2023-04-25T13:59:28;12.88;;;3.53;;
64060;SDS011;60147;55.036;73.242;2023-04-25T14:02:17;19.40;;;4.07;;
64060;SDS011;60147;55.036;73.242;2023-04-25T14:04:43;20.17;;;3.70;;
64060;SDS011;60147;55.036;73.242;2023-04-25T14:07:28;46.40;;;5.25;;
64060;SDS011;60147;55.036;73.242;2023-04-25T14:10:12;49.03;;;5.95;;
64060;SDS011;60147;55.036;73.242;2023-04-25T14:12:38;45.20;;;5.18;;
64060;SDS011;60147;55.036;73.242;2023-04-25T14:15:13;68.28;;;6.47;;
64060;SDS011;60147;55.036;73.242;2023-04-25T14:17:39;54.65;;;7.20;;
64060;SDS011;60147;55.036;73.242;2023-04-25T14:20:24;52.78;;;7.30;;
64060;SDS011;60147;55.036;73.242;2023-04-25T14:22:50;31.38;;;7.32;;
64060;SDS011;60147;55.036;73.242;2023-04-25T14:25:15;41.95;;;7.20;;
64060;SDS011;60147;55.036;73.242;2023-04-25T14:27:42;68.43;;;9.23;;
64060;SDS011;60147;55.036;73.242;2023-04-25T14:30:08;53.90;;;9.18;;
64060;SDS011;60147;55.036;73.242;2023-04-25T14:32:35;90.97;;;10.98;;
64060;SDS011;60147;55.036;73.242;2023-04-25T14:35:19;55.13;;;8.68;;
64060;SDS011;60147;55.036;73.242;2023-04-25T14:37:45;46.45;;;9.02;;
64060;SDS011;60147;55.036;73.242;2023-04-25T14:42:42;41.95;;;8.50;;
64060;SDS011;60147;55.036;73.242;2023-04-25T14:45:08;49.72;;;10.70;;
64060;SDS011;60147;55.036;73.242;2023-04-25T14:48:11;42.10;;;9.82;;
64060;SDS011;60147;55.036;73.242;2023-04-25T14:50:55;51.78;;;10.30;;
64060;SDS011;60147;55.036;73.242;2023-04-25T14:53:44;38.38;;;8.82;;
64060;SDS011;60147;55.036;73.242;2023-04-25T14:56:10;62.20;;;10.52;;
64060;SDS011;60147;55.036;73.242;2023-04-25T14:58:35;80.82;;;11.65;;
64060;SDS011;60147;55.036;73.242;2023-04-25T15:03:47;66.10;;;12.15;;
64060;SDS011;60147;55.036;73.242;2023-04-25T15:09:08;82.90;;;14.13;;
64060;SDS011;60147;55.036;73.242;2023-04-25T15:11:36;80.80;;;12.65;;
64060;SDS011;60147;55.036;73.242;2023-04-25T15:14:50;93.43;;;12.60;;
64060;SDS011;60147;55.036;73.242;2023-04-25T15:20:01;88.95;;;12.63;;
64060;SDS011;60147;55.036;73.242;2023-04-25T15:22:45;82.45;;;13.43;;
64060;SDS011;60147;55.036;73.242;2023-04-25T15:27:58;73.75;;;13.68;;
64060;SDS011;60147;55.036;73.242;2023-04-25T15:33:29;46.30;;;12.55;;
64060;SDS011;60147;55.036;73.242;2023-04-25T15:36:05;43.00;;;10.85;;
64060;SDS011;60147;55.036;73.242;2023-04-25T15:38:31;31.38;;;11.90;;
64060;SDS011;60147;55.036;73.242;2023-04-25T15:40:57;40.58;;;10.90;;
64060;SDS011;60147;55.036;73.242;2023-04-25T15:43:23;33.78;;;10.25;;
64060;SDS011;60147;55.036;73.242;2023-04-25T15:45:49;52.95;;;11.25;;
64060;SDS011;60147;55.036;73.242;2023-04-25T15:48:15;43.00;;;10.63;;
64060;SDS011;60147;55.036;73.242;2023-04-25T15:50:41;32.90;;;10.27;;
64060;SDS011;60147;55.036;73.242;2023-04-25T15:53:07;34.28;;;8.50;;
64060;SDS011;60147;55.036;73.242;2023-04-25T15:55:33;31.60;;;11.63;;
64060;SDS011;60147;55.036;73.242;2023-04-25T15:57:59;35.35;;;11.25;;
64060;SDS011;60147;55.036;73.242;2023-04-25T16:00:27;34.78;;;12.85;;
64060;SDS011;60147;55.036;73.242;2023-04-25T16:02:54;40.97;;;12.98;;
64060;SDS011;60147;55.036;73.242;2023-04-25T16:05:20;40.08;;;12.57;;
64060;SDS011;60147;55.036;73.242;2023-04-25T16:07:46;30.73;;;12.48;;
64060;SDS011;60147;55.036;73.242;2023-04-25T16:10:40;39.15;;;13.80;;
64060;SDS011;60147;55.036;73.242;2023-04-25T16:13:07;34.78;;;12.75;;
64060;SDS011;60147;55.036;73.242;2023-04-25T16:15:33;35.40;;;16.42;;
64060;SDS011;60147;55.036;73.242;2023-04-25T16:17:59;35.30;;;16.70;;
64060;SDS011;60147;55.036;73.242;2023-04-25T16:20:43;36.60;;;17.33;;
64060;SDS011;60147;55.036;73.242;2023-04-25T16:26:04;37.50;;;15.45;;
64060;SDS011;60147;55.036;73.242;2023-04-25T16:28:30;30.67;;;12.30;;
64060;SDS011;60147;55.036;73.242;2023-04-25T16:31:14;30.98;;;12.30;;
64060;SDS011;60147;55.036;73.242;2023-04-25T16:33:40;20.60;;;8.70;;
64060;SDS011;60147;55.036;73.242;2023-04-25T16:38:56;21.20;;;9.50;;
64060;SDS011;60147;55.036;73.242;2023-04-25T16:41:27;16.65;;;7.45;;
64060;SDS011;60147;55.036;73.242;2023-04-25T16:44:04;24.67;;;8.57;;
64060;SDS011;60147;55.036;73.242;2023-04-25T16:46:58;20.58;;;8.45;;
64060;SDS011;60147;55.036;73.242;2023-04-25T16:49:34;25.75;;;8.93;;
64060;SDS011;60147;55.036;73.242;2023-04-25T16:52:00;17.77;;;8.48;;
64060;SDS011;60147;55.036;73.242;2023-04-25T16:54:26;19.70;;;8.02;;
64060;SDS011;60147;55.036;73.242;2023-04-25T16:56:52;18.00;;;7.20;;
64060;SDS011;60147;55.036;73.242;2023-04-25T16:59:42;18.73;;;7.60;;
64060;SDS011;60147;55.036;73.242;2023-04-25T17:02:09;16.15;;;7.53;;
64060;SDS011;60147;55.036;73.242;2023-04-25T17:04:36;16.13;;;7.65;;
64060;SDS011;60147;55.036;73.242;2023-04-25T17:07:21;16.98;;;7.47;;
64060;SDS011;60147;55.036;73.242;2023-04-25T17:09:49;21.67;;;7.80;;
64060;SDS011;60147;55.036;73.242;2023-04-25T17:12:18;15.93;;;6.93;;
64060;SDS011;60147;55.036;73.242;2023-04-25T17:15:02;13.35;;;6.30;;
64060;SDS011;60147;55.036;73.242;2023-04-25T17:17:29;11.40;;;5.30;;
64060;SDS011;60147;55.036;73.242;2023-04-25T17:20:13;12.27;;;5.35;;